createdAt,value
2018-07-13T00:00:49.249Z,10.30
2018-07-13T00:03:18.003Z,13.43
2018-07-13T00:05:46.593Z,13.33
2018-07-13T00:08:15.043Z,17.90
2018-07-13T00:10:44.421Z,19.40
2018-07-13T00:13:13.244Z,10.63
2018-07-13T00:15:53.111Z,8.73
2018-07-13T00:18:21.868Z,20.00
2018-07-13T00:20:50.497Z,16.27
2018-07-13T00:23:19.513Z,15.40
2018-07-13T00:25:48.266Z,10.10
2018-07-13T00:28:16.925Z,13.63
2018-07-13T00:30:46.668Z,13.53
2018-07-13T00:33:15.379Z,18.90
2018-07-13T00:35:44.385Z,20.00
2018-07-13T00:38:13.056Z,14.47
2018-07-13T00:40:41.717Z,18.70
2018-07-13T00:43:10.364Z,18.00
2018-07-13T00:45:39.023Z,24.17
2018-07-13T00:48:07.698Z,12.07
2018-07-13T00:50:36.361Z,15.53
2018-07-13T00:53:05.194Z,13.90
2018-07-13T00:55:33.878Z,16.07
2018-07-13T00:58:02.660Z,18.77
2018-07-13T01:00:32.680Z,19.27
2018-07-13T01:03:02.933Z,17.70
2018-07-13T01:05:31.898Z,19.80
2018-07-13T01:08:00.585Z,18.17
2018-07-13T01:10:29.313Z,25.37
2018-07-13T01:12:57.947Z,13.87
2018-07-13T01:15:26.661Z,16.63
2018-07-13T01:17:55.308Z,21.40
2018-07-13T01:20:24.012Z,21.00
2018-07-13T01:22:52.672Z,15.60
2018-07-13T01:25:20.992Z,14.03
2018-07-13T01:27:49.958Z,20.30
2018-07-13T01:30:18.650Z,25.17
2018-07-13T01:32:47.336Z,20.37
2018-07-13T01:35:16.014Z,19.60
2018-07-13T01:37:44.802Z,16.43
2018-07-13T01:40:13.472Z,17.80
2018-07-13T01:42:42.220Z,22.43
2018-07-13T01:45:10.891Z,18.63
2018-07-13T01:47:39.582Z,16.67
2018-07-13T01:50:08.254Z,19.33
2018-07-13T01:52:36.901Z,23.20
2018-07-13T01:55:05.783Z,19.50
2018-07-13T01:57:34.512Z,20.87
2018-07-13T02:00:03.470Z,32.20
2018-07-13T02:02:32.261Z,19.30
2018-07-13T02:05:00.544Z,24.57
2018-07-13T02:07:29.256Z,23.40
2018-07-13T02:09:57.907Z,25.60
2018-07-13T02:12:26.547Z,26.67
2018-07-13T02:14:55.394Z,18.10
2018-07-13T02:17:24.295Z,18.43
2018-07-13T02:19:52.938Z,24.07
2018-07-13T02:22:22.324Z,30.03
2018-07-13T02:24:50.913Z,25.27
2018-07-13T02:27:19.791Z,21.97
2018-07-13T02:29:48.842Z,18.77
2018-07-13T02:32:17.561Z,43.85
2018-07-13T02:34:46.217Z,19.75
2018-07-13T02:37:14.911Z,23.50
2018-07-13T02:39:43.549Z,23.35
2018-07-13T02:42:12.205Z,21.30
2018-07-13T02:44:40.852Z,27.93
2018-07-13T02:47:09.590Z,20.67
2018-07-13T02:49:38.249Z,22.17
2018-07-13T02:52:06.961Z,21.45
2018-07-13T02:54:35.670Z,28.27
2018-07-13T02:57:04.395Z,31.65
2018-07-13T02:59:32.986Z,27.83
2018-07-13T03:02:01.776Z,29.87
2018-07-13T03:04:30.459Z,31.93
2018-07-13T03:06:59.458Z,29.45
2018-07-13T03:09:28.164Z,25.62
2018-07-13T03:11:56.880Z,29.25
2018-07-13T03:14:25.722Z,26.07
2018-07-13T03:16:54.416Z,24.83
2018-07-13T03:19:23.167Z,23.87
2018-07-13T03:21:52.136Z,31.73
2018-07-13T03:24:20.843Z,33.67
2018-07-13T03:26:49.821Z,22.77
2018-07-13T03:29:18.628Z,26.17
2018-07-13T03:31:47.275Z,33.53
2018-07-13T03:34:15.938Z,22.73
2018-07-13T03:36:44.582Z,22.00
2018-07-13T03:39:13.235Z,25.10
2018-07-13T03:41:41.945Z,22.13
2018-07-13T03:44:10.666Z,19.60
2018-07-13T03:46:39.516Z,29.35
2018-07-13T03:49:08.188Z,26.80
2018-07-13T03:51:36.802Z,18.50
2018-07-13T03:54:05.902Z,21.13
2018-07-13T03:56:34.614Z,19.70
2018-07-13T03:59:03.611Z,22.63
2018-07-13T04:01:32.246Z,25.80
2018-07-13T04:04:00.914Z,20.87
2018-07-13T04:06:29.605Z,23.40
2018-07-13T04:08:58.268Z,20.80
2018-07-13T04:11:26.986Z,27.30
2018-07-13T04:13:55.624Z,25.10
2018-07-13T04:16:24.295Z,19.80
2018-07-13T04:18:52.970Z,23.27
2018-07-13T04:21:21.692Z,23.77
2018-07-13T04:23:50.400Z,25.53
2018-07-13T04:26:19.105Z,22.83
2018-07-13T04:28:48.158Z,27.07
2018-07-13T04:31:16.908Z,20.83
2018-07-13T04:33:45.768Z,23.43
2018-07-13T04:36:14.625Z,21.07
2018-07-13T04:38:43.488Z,17.20
2018-07-13T04:41:12.342Z,20.07
2018-07-13T04:43:41.119Z,17.87
2018-07-13T04:46:09.897Z,28.80
2018-07-13T04:48:38.729Z,26.70
2018-07-13T04:51:08.003Z,24.57
2018-07-13T04:53:36.899Z,24.17
2018-07-13T04:56:06.243Z,28.50
2018-07-13T04:58:35.020Z,24.97
2018-07-13T05:01:03.818Z,20.70
2018-07-13T05:03:32.756Z,23.30
2018-07-13T05:06:01.461Z,24.70
2018-07-13T05:08:30.344Z,22.03
2018-07-13T05:10:59.033Z,19.73
2018-07-13T05:13:27.717Z,31.70
2018-07-13T05:15:56.438Z,26.03
2018-07-13T05:18:24.816Z,29.47
2018-07-13T05:20:53.214Z,20.83
2018-07-13T05:23:21.974Z,23.43
2018-07-13T05:25:50.719Z,17.97
2018-07-13T05:28:19.619Z,23.67
2018-07-13T05:30:48.459Z,21.80
2018-07-13T05:33:17.197Z,23.73
2018-07-13T05:35:46.004Z,29.07
2018-07-13T05:38:14.754Z,30.20
2018-07-13T05:40:43.490Z,27.47
2018-07-13T05:43:12.414Z,28.63
2018-07-13T05:45:41.174Z,23.83
2018-07-13T05:48:09.980Z,27.30
2018-07-13T05:50:38.766Z,24.03
2018-07-13T05:53:07.614Z,28.52
2018-07-13T05:55:36.399Z,27.40
2018-07-13T05:58:05.208Z,46.10
2018-07-13T06:00:33.991Z,31.27
2018-07-13T06:03:02.709Z,38.33
2018-07-13T06:05:31.994Z,27.50
2018-07-13T06:08:00.752Z,27.93
2018-07-13T06:10:29.646Z,27.27
2018-07-13T06:12:58.386Z,23.60
2018-07-13T06:15:27.318Z,23.38
2018-07-13T06:17:56.117Z,23.70
2018-07-13T06:20:24.876Z,22.47
2018-07-13T06:22:53.666Z,28.07
2018-07-13T06:25:22.325Z,27.07
2018-07-13T06:27:50.990Z,26.23
2018-07-13T06:30:19.740Z,25.63
2018-07-13T06:32:48.289Z,21.03
2018-07-13T06:35:16.896Z,17.40
2018-07-13T06:37:45.742Z,17.43
2018-07-13T06:40:14.628Z,21.63
2018-07-13T06:42:43.373Z,14.53
2018-07-13T06:45:12.104Z,20.53
2018-07-13T06:47:40.478Z,20.37
2018-07-13T06:50:09.255Z,19.00
2018-07-13T06:52:37.927Z,24.30
2018-07-13T06:55:06.663Z,16.37
2018-07-13T06:57:40.519Z,17.07
2018-07-13T07:01:12.435Z,18.13
2018-07-13T07:04:49.696Z,19.83
2018-07-13T07:07:22.623Z,19.20
2018-07-13T07:09:58.346Z,21.53
2018-07-13T07:12:51.795Z,24.30
2018-07-13T07:15:21.060Z,17.50
2018-07-13T07:17:49.797Z,18.47
2018-07-13T07:20:18.513Z,17.53
2018-07-13T07:22:47.839Z,22.13
2018-07-13T07:25:16.687Z,18.33
2018-07-13T07:27:45.802Z,17.40
2018-07-13T07:30:14.925Z,18.53
2018-07-13T07:32:44.305Z,19.10
2018-07-13T07:35:13.020Z,14.67
2018-07-13T07:37:41.886Z,21.20
2018-07-13T07:40:10.682Z,18.20
2018-07-13T07:42:39.405Z,20.97
2018-07-13T07:45:08.135Z,19.20
2018-07-13T07:47:36.911Z,17.33
2018-07-13T07:50:05.623Z,22.70
2018-07-13T07:52:34.281Z,17.20
2018-07-13T07:55:02.635Z,18.67
2018-07-13T07:57:31.428Z,12.90
2018-07-13T08:00:00.124Z,15.33
2018-07-13T08:02:28.824Z,15.80
2018-07-13T08:04:57.529Z,16.67
2018-07-13T08:07:26.426Z,17.67
2018-07-13T08:09:55.189Z,13.10
2018-07-13T08:12:23.842Z,11.63
2018-07-13T08:14:52.662Z,11.70
2018-07-13T08:17:21.350Z,12.13
2018-07-13T08:19:50.103Z,13.20
2018-07-13T08:22:37.903Z,21.47
2018-07-13T08:25:08.569Z,13.03
2018-07-13T08:27:40.127Z,13.40
2018-07-13T08:30:42.000Z,9.37
2018-07-13T08:33:10.689Z,13.87
2018-07-13T08:35:39.322Z,13.40
2018-07-13T08:38:08.217Z,11.67
2018-07-13T08:40:36.873Z,16.67
2018-07-13T08:43:05.997Z,23.43
2018-07-13T08:45:34.744Z,14.53
2018-07-13T08:48:03.076Z,14.30
2018-07-13T08:50:32.339Z,13.63
2018-07-13T08:53:01.131Z,13.17
2018-07-13T08:55:30.451Z,20.97
2018-07-13T08:57:59.531Z,11.53
2018-07-13T09:00:28.260Z,20.53
2018-07-13T09:02:56.954Z,20.00
2018-07-13T09:05:25.704Z,15.93
2018-07-13T09:07:54.470Z,15.97
2018-07-13T09:10:23.257Z,19.03
2018-07-13T09:12:51.954Z,18.53
2018-07-13T09:15:20.680Z,12.87
2018-07-13T09:17:49.382Z,17.70
2018-07-13T09:20:18.195Z,14.20
2018-07-13T09:22:46.955Z,14.63
2018-07-13T09:25:15.721Z,12.93
2018-07-13T09:27:44.369Z,13.17
2018-07-13T09:30:12.864Z,13.93
2018-07-13T09:32:41.712Z,13.50
2018-07-13T09:35:10.552Z,13.00
2018-07-13T09:37:39.281Z,12.00
2018-07-13T09:40:08.086Z,16.10
2018-07-13T09:42:37.244Z,13.23
2018-07-13T09:45:05.938Z,14.30
2018-07-13T09:47:35.528Z,12.30
2018-07-13T09:50:04.597Z,12.43
2018-07-13T09:52:33.727Z,11.03
2018-07-13T09:55:02.801Z,17.07
2018-07-13T09:57:32.359Z,8.00
2018-07-13T10:00:01.041Z,17.23
2018-07-13T10:02:29.686Z,9.40
2018-07-13T10:04:58.571Z,12.67
2018-07-13T10:07:27.581Z,15.37
2018-07-13T10:09:56.554Z,5.83
2018-07-13T10:12:25.475Z,11.37
2018-07-13T10:14:54.227Z,10.13
2018-07-13T10:17:23.003Z,13.40
2018-07-13T10:19:51.720Z,12.20
2018-07-13T10:22:26.621Z,8.67
2018-07-13T10:24:57.065Z,7.33
2018-07-13T10:27:26.803Z,12.57
2018-07-13T10:29:56.834Z,9.43
2018-07-13T10:32:25.628Z,11.93
2018-07-13T10:34:54.827Z,12.07
2018-07-13T10:37:26.256Z,11.13
2018-07-13T10:39:54.861Z,7.77
2018-07-13T10:42:23.616Z,7.03
2018-07-13T10:44:52.278Z,9.80
2018-07-13T10:47:21.071Z,8.23
2018-07-13T10:49:49.851Z,10.60
2018-07-13T10:52:18.231Z,10.60
2018-07-13T10:54:46.883Z,10.67
2018-07-13T10:57:15.695Z,6.70
2018-07-13T10:59:44.357Z,8.53
2018-07-13T11:02:13.097Z,20.90
2018-07-13T11:04:41.839Z,6.37
2018-07-13T11:07:10.432Z,8.63
2018-07-13T11:09:39.962Z,8.53
2018-07-13T11:12:08.854Z,11.30
2018-07-13T11:14:38.690Z,11.87
2018-07-13T11:17:07.525Z,13.10
2018-07-13T11:19:36.204Z,8.90
2018-07-13T11:22:04.979Z,13.83
2018-07-13T11:24:33.731Z,8.70
2018-07-13T11:27:02.464Z,11.17
2018-07-13T11:29:31.164Z,7.43
2018-07-13T11:31:59.858Z,12.20
2018-07-13T11:34:28.499Z,5.00
2018-07-13T11:36:57.162Z,9.80
2018-07-13T11:39:25.710Z,7.57
2018-07-13T11:41:54.368Z,6.33
2018-07-13T11:44:23.097Z,8.93
2018-07-13T11:46:51.960Z,5.80
2018-07-13T11:49:20.906Z,7.47
2018-07-13T11:51:49.536Z,5.93
2018-07-13T11:54:18.212Z,7.83
2018-07-13T11:56:46.840Z,13.70
2018-07-13T11:59:15.476Z,5.80
2018-07-13T12:01:44.213Z,7.67
2018-07-13T12:04:12.936Z,7.73
2018-07-13T12:06:41.651Z,8.70
2018-07-13T12:09:10.678Z,6.00
2018-07-13T12:11:39.383Z,6.70
2018-07-13T12:14:08.113Z,9.90
2018-07-13T12:16:36.813Z,8.43
2018-07-13T12:19:05.569Z,7.63
2018-07-13T12:21:34.192Z,6.77
2018-07-13T12:24:02.954Z,4.33
2018-07-13T12:26:31.744Z,10.20
2018-07-13T12:29:00.434Z,10.83
2018-07-13T12:31:29.139Z,6.83
2018-07-13T12:33:57.867Z,9.63
2018-07-13T12:36:26.866Z,7.47
2018-07-13T12:38:55.630Z,6.47
2018-07-13T12:41:24.536Z,7.13
2018-07-13T12:43:53.430Z,7.00
2018-07-13T12:46:22.147Z,10.67
2018-07-13T12:48:50.779Z,6.07
2018-07-13T12:51:19.668Z,5.63
2018-07-13T12:53:48.453Z,6.40
2018-07-13T12:56:17.633Z,6.43
2018-07-13T12:58:46.365Z,7.03
2018-07-13T13:01:15.070Z,6.47
2018-07-13T13:03:44.020Z,5.20
2018-07-13T13:06:12.757Z,10.27
2018-07-13T13:08:41.501Z,8.80
2018-07-13T13:11:10.315Z,6.13
2018-07-13T13:13:39.143Z,5.53
2018-07-13T13:16:07.804Z,7.20
2018-07-13T13:18:37.463Z,3.67
2018-07-13T13:21:06.178Z,6.73
2018-07-13T13:23:35.005Z,8.80
2018-07-13T13:26:03.721Z,3.50
2018-07-13T13:28:32.363Z,6.00
2018-07-13T13:31:01.073Z,8.10
2018-07-13T13:33:29.785Z,9.10
2018-07-13T13:35:58.540Z,7.23
2018-07-13T13:38:27.186Z,3.17
2018-07-13T13:40:55.928Z,3.43
2018-07-13T13:43:24.533Z,13.43
2018-07-13T13:45:53.188Z,3.77
2018-07-13T13:48:22.056Z,5.60
2018-07-13T13:50:50.874Z,6.30
2018-07-13T13:53:19.643Z,4.30
2018-07-13T13:55:48.394Z,5.57
2018-07-13T13:58:17.371Z,3.23
2018-07-13T14:00:45.833Z,4.20
2018-07-13T14:03:14.967Z,5.70
2018-07-13T14:05:44.433Z,3.10
2018-07-13T14:08:13.176Z,6.20
2018-07-13T14:10:42.105Z,3.83
2018-07-13T14:13:10.772Z,10.10
2018-07-13T14:15:39.619Z,4.57
2018-07-13T14:18:08.448Z,4.80
2018-07-13T14:20:37.203Z,8.03
2018-07-13T14:23:06.698Z,5.83
2018-07-13T14:25:35.657Z,9.13
2018-07-13T14:28:05.958Z,3.80
2018-07-13T14:30:34.891Z,5.40
2018-07-13T14:33:04.118Z,3.90
2018-07-13T14:35:32.903Z,5.23
2018-07-13T14:38:01.772Z,4.67
2018-07-13T14:40:31.316Z,3.97
2018-07-13T14:43:00.039Z,6.40
2018-07-13T14:45:28.868Z,5.63
2018-07-13T14:47:57.590Z,5.80
2018-07-13T14:50:26.384Z,4.13
2018-07-13T14:52:55.179Z,14.93
2018-07-13T14:55:24.332Z,4.07
2018-07-13T14:57:52.619Z,4.83
2018-07-13T15:00:22.251Z,4.40
2018-07-13T15:02:50.972Z,4.30
2018-07-13T15:05:19.653Z,3.77
2018-07-13T15:07:48.281Z,4.50
2018-07-13T15:10:17.169Z,4.00
2018-07-13T15:12:45.750Z,4.17
2018-07-13T15:15:14.530Z,3.80
2018-07-13T15:17:43.503Z,4.23
2018-07-13T15:20:12.339Z,4.43
2018-07-13T15:22:41.029Z,4.10
2018-07-13T15:25:09.803Z,9.77
2018-07-13T15:27:38.646Z,4.40
2018-07-13T15:30:07.440Z,4.27
2018-07-13T15:32:36.199Z,2.60
2018-07-13T15:35:04.974Z,9.70
2018-07-13T15:37:33.746Z,3.17
2018-07-13T15:40:02.633Z,5.37
2018-07-13T15:42:30.939Z,3.13
2018-07-13T15:44:59.793Z,3.43
2018-07-13T15:47:28.903Z,8.67
2018-07-13T15:49:57.598Z,4.27
2018-07-13T15:52:26.303Z,5.57
2018-07-13T15:54:55.248Z,3.40
2018-07-13T15:57:23.658Z,2.73
2018-07-13T15:59:52.420Z,5.97
2018-07-13T16:02:21.590Z,4.17
2018-07-13T16:04:50.450Z,2.73
2018-07-13T16:07:19.674Z,5.40
2018-07-13T16:09:48.392Z,5.90
2018-07-13T16:12:17.212Z,5.80
2018-07-13T16:14:46.105Z,4.77
2018-07-13T16:17:14.891Z,4.43
2018-07-13T16:19:44.027Z,6.00
2018-07-13T16:22:13.052Z,3.00
2018-07-13T16:24:48.225Z,6.97
2018-07-13T16:27:17.001Z,5.10
2018-07-13T16:29:45.692Z,4.40
2018-07-13T16:32:14.600Z,3.17
2018-07-13T16:34:43.421Z,4.00
2018-07-13T16:37:12.293Z,4.50
2018-07-13T16:39:40.973Z,7.13
2018-07-13T16:42:10.063Z,3.63
2018-07-13T16:44:38.866Z,3.43
2018-07-13T16:47:07.726Z,4.27
2018-07-13T16:49:36.436Z,6.70
2018-07-13T16:52:05.438Z,7.00
2018-07-13T16:54:34.602Z,8.93
2018-07-13T16:57:03.290Z,6.10
2018-07-13T16:59:32.070Z,9.53
2018-07-13T17:02:00.845Z,3.17
2018-07-13T17:04:29.260Z,4.50
2018-07-13T17:06:58.612Z,7.83
2018-07-13T17:09:27.436Z,5.23
2018-07-13T17:11:56.533Z,4.00
2018-07-13T17:14:25.630Z,4.47
2018-07-13T17:16:54.398Z,4.07
2018-07-13T17:19:23.210Z,4.70
2018-07-13T17:21:52.010Z,7.67
2018-07-13T17:24:20.983Z,3.60
2018-07-13T17:26:49.769Z,2.90
2018-07-13T17:29:18.494Z,7.03
2018-07-13T17:31:47.274Z,5.13
2018-07-13T17:34:16.165Z,5.87
2018-07-13T17:36:45.075Z,4.40
2018-07-13T17:39:13.787Z,6.17
2018-07-13T17:41:42.451Z,8.27
2018-07-13T17:44:11.239Z,4.40
2018-07-13T17:46:39.969Z,5.40
2018-07-13T17:49:08.744Z,3.80
2018-07-13T17:51:37.445Z,5.27
2018-07-13T17:54:06.108Z,3.00
2018-07-13T17:56:34.792Z,5.20
2018-07-13T17:59:03.464Z,5.63
2018-07-13T18:01:32.088Z,6.77
2018-07-13T18:04:00.875Z,3.37
2018-07-13T18:06:29.567Z,3.47
2018-07-13T18:08:58.305Z,3.50
2018-07-13T18:11:27.222Z,3.37
2018-07-13T18:13:55.568Z,4.67
2018-07-13T18:16:24.505Z,8.13
2018-07-13T18:18:53.196Z,5.70
2018-07-13T18:21:22.614Z,5.20
2018-07-13T18:23:51.296Z,5.40
2018-07-13T18:26:20.715Z,3.43
2018-07-13T18:28:49.523Z,5.63
2018-07-13T18:31:18.176Z,7.87
2018-07-13T18:33:47.769Z,6.17
2018-07-13T18:36:16.604Z,6.70
2018-07-13T18:38:45.598Z,3.57
2018-07-13T18:41:15.326Z,3.70
2018-07-13T18:43:44.606Z,6.23
2018-07-13T18:46:13.887Z,2.80
2018-07-13T18:48:42.503Z,3.70
2018-07-13T18:51:11.266Z,3.50
2018-07-13T18:53:39.972Z,6.87
2018-07-13T18:56:08.740Z,6.60
2018-07-13T18:58:37.568Z,2.73
2018-07-13T19:01:06.632Z,3.80
2018-07-13T19:03:35.401Z,4.87
2018-07-13T19:06:04.138Z,4.30
2018-07-13T19:08:32.784Z,3.30
2018-07-13T19:11:01.427Z,6.20
2018-07-13T19:13:31.717Z,3.57
2018-07-13T19:16:00.334Z,7.43
2018-07-13T19:18:29.007Z,4.73
2018-07-13T19:20:57.673Z,2.60
2018-07-13T19:23:26.696Z,6.30
2018-07-13T19:25:55.427Z,4.27
2018-07-13T19:28:24.019Z,4.10
2018-07-13T19:30:52.855Z,4.23
2018-07-13T19:33:21.559Z,3.47
2018-07-13T19:35:50.204Z,2.80
2018-07-13T19:38:18.932Z,4.10
2018-07-13T19:40:47.686Z,3.93
2018-07-13T19:43:16.355Z,7.33
2018-07-13T19:45:45.126Z,7.70
2018-07-13T19:48:14.017Z,5.90
2018-07-13T19:50:42.724Z,4.30
2018-07-13T19:53:11.398Z,18.60
2018-07-13T19:55:40.064Z,7.37
2018-07-13T19:58:08.879Z,6.67
2018-07-13T20:00:37.822Z,6.13
2018-07-13T20:03:06.738Z,5.77
2018-07-13T20:05:35.354Z,6.30
2018-07-13T20:08:04.101Z,4.93
2018-07-13T20:10:33.534Z,5.67
2018-07-13T20:13:02.205Z,10.67
2018-07-13T20:15:32.026Z,9.10
2018-07-13T20:18:00.707Z,15.20
2018-07-13T20:20:29.407Z,6.57
2018-07-13T20:22:58.114Z,5.77
2018-07-13T20:25:26.736Z,7.30
2018-07-13T20:27:55.123Z,7.80
2018-07-13T20:30:23.890Z,5.40
2018-07-13T20:32:52.518Z,6.30
2018-07-13T20:35:21.170Z,5.40
2018-07-13T20:37:49.839Z,4.80
2018-07-13T20:40:18.550Z,5.43
2018-07-13T20:42:47.248Z,5.43
2018-07-13T20:45:15.982Z,5.70
2018-07-13T20:47:44.700Z,6.87
2018-07-13T20:50:13.415Z,5.77
2018-07-13T20:52:42.184Z,11.67
2018-07-13T20:55:10.863Z,6.13
2018-07-13T20:57:39.506Z,8.20
2018-07-13T21:00:08.223Z,7.60
2018-07-13T21:02:38.220Z,5.03
2018-07-13T21:05:06.915Z,7.37
2018-07-13T21:07:37.095Z,7.23
2018-07-13T21:10:05.888Z,8.37
2018-07-13T21:12:34.158Z,5.03
2018-07-13T21:15:02.803Z,5.73
2018-07-13T21:17:31.491Z,6.07
2018-07-13T21:20:00.100Z,4.37
2018-07-13T21:22:28.846Z,4.23
2018-07-13T21:24:57.770Z,9.00
2018-07-13T21:27:26.463Z,5.80
2018-07-13T21:29:55.198Z,4.87
2018-07-13T21:32:23.949Z,5.50
2018-07-13T21:34:52.591Z,5.10
2018-07-13T21:37:21.313Z,4.57
2018-07-13T21:39:49.877Z,6.73
2018-07-13T21:42:18.566Z,5.10
2018-07-13T21:44:47.164Z,6.03
2018-07-13T21:47:15.931Z,8.93
2018-07-13T21:49:45.697Z,7.00
2018-07-13T21:52:14.889Z,7.00
2018-07-13T21:54:43.615Z,9.90
2018-07-13T21:57:12.784Z,6.20
2018-07-13T21:59:41.560Z,6.30
2018-07-13T22:02:10.305Z,6.03
2018-07-13T22:04:39.073Z,7.43
2018-07-13T22:07:07.779Z,5.50
2018-07-13T22:09:36.892Z,6.50
2018-07-13T22:12:07.831Z,9.20
2018-07-13T22:14:36.582Z,5.27
2018-07-13T22:17:05.555Z,17.00
2018-07-13T22:19:34.222Z,6.27
2018-07-13T22:22:03.039Z,5.97
2018-07-13T22:24:31.878Z,7.47
2018-07-13T22:27:00.487Z,7.00
2018-07-13T22:29:29.089Z,5.10
2018-07-13T22:31:57.799Z,6.07
2018-07-13T22:34:26.725Z,5.80
2018-07-13T22:36:55.509Z,7.60
2018-07-13T22:39:24.096Z,9.20
2018-07-13T22:41:53.659Z,7.60
2018-07-13T22:44:22.272Z,7.80
2018-07-13T22:46:50.937Z,7.47
2018-07-13T22:49:19.517Z,7.53
2018-07-13T22:51:48.173Z,10.03
2018-07-13T22:54:17.005Z,6.17
2018-07-13T22:56:45.771Z,11.50
2018-07-13T22:59:14.485Z,7.23
2018-07-13T23:01:43.118Z,6.50
2018-07-13T23:04:11.812Z,7.90
2018-07-13T23:06:40.501Z,8.10
2018-07-13T23:09:09.182Z,7.50
2018-07-13T23:11:37.908Z,6.77
2018-07-13T23:14:06.599Z,7.97
2018-07-13T23:16:35.364Z,6.47
2018-07-13T23:19:04.121Z,10.80
2018-07-13T23:21:32.807Z,9.10
2018-07-13T23:24:01.504Z,6.87
2018-07-13T23:26:30.187Z,12.07
2018-07-13T23:28:58.892Z,8.30
2018-07-13T23:31:27.537Z,8.70
2018-07-13T23:33:56.192Z,8.40
2018-07-13T23:36:24.943Z,12.60
2018-07-13T23:38:54.719Z,9.23
2018-07-13T23:41:23.384Z,8.37
2018-07-13T23:43:52.170Z,9.40
2018-07-13T23:46:20.913Z,8.60
2018-07-13T23:48:49.595Z,9.43
2018-07-13T23:51:18.430Z,10.53
2018-07-13T23:53:47.035Z,10.33
2018-07-13T23:56:15.251Z,9.50
2018-07-13T23:58:43.996Z,9.40
